Time;durP1;ratioP1;P1;durP2;ratioP2;P2;SDS_P1;SDS_P2;PMS_P1;PMS_P2;Temp;Humidity;BMP_temperature;BMP_pressure;BME280_temperature;BME280_humidity;BME280_pressure;Samples;Min_cycle;Max_cycle;Signal;HPM_P1;HPM_P2
2022/06/15 00:02:07;;;;;;;;;;;;;;;15.05;79.29;95629.56;5076110;28;1016;-49
2022/06/15 00:04:34;;;;;;;;;;;;;;;15.09;79.02;95631.72;5075694;28;1057;-49
2022/06/15 00:06:59;;;;;;;;;;;;;;;15.00;79.76;95632.78;5090308;28;1158;-49
2022/06/15 00:09:26;;;;;;;;;;;;;;;14.91;80.60;95628.44;5095854;28;2006;-49
2022/06/15 00:11:52;;;;;;;;;;;;;;;14.84;80.77;95636.41;5096274;28;1052;-49
2022/06/15 00:14:22;;;;;;;;;;;;;;;14.78;80.00;95635.25;5095055;28;1076;-49
2022/06/15 00:16:48;;;;;;;;;;;;;;;14.81;78.66;95628.66;5096093;28;1018;-49
2022/06/15 00:19:15;;;;;;;;;;;;;;;14.63;79.79;95634.31;5096263;28;1012;-49
2022/06/15 00:21:41;;;;;;;;;;;;;;;14.54;80.66;95638.00;5096075;28;982;-49
2022/06/15 00:24:07;;;;;;;;;;;;;;;14.49;80.79;95633.13;5095661;28;1033;-49
2022/06/15 00:26:33;;;;;;;;;;;;;;;14.73;80.57;95626.84;5095880;28;1048;-49
2022/06/15 00:28:59;;;;;;;;;;;;;;;14.70;80.57;95634.44;5095716;28;1004;-49
2022/06/15 00:31:25;;;;;;;;;;;;;;;14.28;80.75;95625.63;5095628;28;1971;-49
2022/06/15 00:33:51;;;;;;;;;;;;;;;14.30;81.76;95628.16;5095783;28;1033;-49
2022/06/15 00:36:19;;;;;;;;;;;;;;;14.29;81.35;95629.19;5095520;28;1971;-49
2022/06/15 00:38:46;;;;;;;;;;;;;;;14.25;81.52;95629.50;5095728;28;1024;-49
2022/06/15 00:41:13;;;;;;;;;;;;;;;14.23;81.26;95634.22;5095568;28;918;-49
2022/06/15 00:43:50;;;;;;;;;;;;;;;14.23;81.50;95634.22;5095330;28;1048;-49
2022/06/15 00:46:32;;;;;;;;;;;;;;;14.12;81.69;95628.38;5095392;28;957;-49
2022/06/15 00:49:06;;;;;;;;;;;;;;;13.90;82.23;95630.75;5095251;28;1009;-49
2022/06/15 00:51:32;;;;;;;;;;;;;;;13.84;82.73;95636.81;5095312;28;1061;-49
2022/06/15 00:53:59;;;;;;;;;;;;;;;13.96;81.38;95634.59;5094948;28;1199;-49
2022/06/15 00:56:27;;;;;;;;;;;;;;;14.01;82.33;95633.09;5095233;28;960;-49
2022/06/15 00:58:56;;;;;;;;;;;;;;;14.01;82.15;95633.09;5094966;28;1027;-49
2022/06/15 01:01:22;;;;;;;;;;;;;;;13.99;82.50;95635.09;5095342;28;962;-49
2022/06/15 01:03:49;;;;;;;;;;;;;;;13.86;82.26;95635.63;5094954;28;1095;-49
2022/06/15 01:06:22;;;;;;;;;;;;;;;13.82;82.58;95630.75;5087180;28;1213;-49
2022/06/15 01:09:00;;;;;;;;;;;;;;;13.88;81.60;95634.63;5074811;28;1000;-49
2022/06/15 01:11:34;;;;;;;;;;;;;;;13.90;82.18;95640.66;5074527;28;1898;-49
2022/06/15 01:14:16;;;;;;;;;;;;;;;13.95;81.86;95638.31;5074783;28;946;-49
2022/06/15 01:17:05;;;;;;;;;;;;;;;13.67;81.58;95635.97;5074499;28;1077;-49
2022/06/15 01:19:43;;;;;;;;;;;;;;;13.27;82.40;95634.91;5074334;28;1057;-49
2022/06/15 01:22:23;;;;;;;;;;;;;;;13.36;82.24;95636.66;5074724;28;1229;-49
2022/06/15 01:24:56;;;;;;;;;;;;;;;13.56;81.36;95637.16;5074266;28;1048;-49
2022/06/15 01:27:31;;;;;;;;;;;;;;;13.55;81.27;95640.03;5074340;28;1057;-49
2022/06/15 01:30:00;;;;;;;;;;;;;;;13.35;81.70;95653.75;5074155;28;2000;-49
2022/06/15 01:32:41;;;;;;;;;;;;;;;13.23;82.57;95652.38;5074163;28;1025;-49
2022/06/15 01:35:17;;;;;;;;;;;;;;;13.31;82.41;95662.31;5073916;28;1283;-49
2022/06/15 01:37:51;;;;;;;;;;;;;;;13.26;82.62;95654.72;5074152;28;1025;-49
2022/06/15 01:40:20;;;;;;;;;;;;;;;13.27;82.77;95656.41;5074088;28;1033;-48
2022/06/15 01:42:58;;;;;;;;;;;;;;;13.33;82.34;95655.75;5073956;28;949;-49
2022/06/15 01:45:26;;;;;;;;;;;;;;;13.42;82.71;95662.84;5073719;28;1097;-49
2022/06/15 01:47:56;;;;;;;;;;;;;;;13.42;81.11;95649.41;5074132;28;1058;-49
2022/06/15 01:50:24;;;;;;;;;;;;;;;13.44;81.63;95660.00;5073617;28;2277;-49
2022/06/15 01:52:59;;;;;;;;;;;;;;;13.18;82.21;95662.75;5073909;28;1009;-49
2022/06/15 01:55:30;;;;;;;;;;;;;;;12.74;83.62;95665.66;5073397;28;1029;-49
2022/06/15 01:58:00;;;;;;;;;;;;;;;12.67;83.79;95660.09;5073886;28;1960;-49
2022/06/15 02:00:26;;;;;;;;;;;;;;;12.69;83.90;95669.66;5073580;28;1099;-49
2022/06/15 02:02:52;;;;;;;;;;;;;;;12.91;83.78;95671.94;5073893;28;958;-49
2022/06/15 02:05:25;;;;;;;;;;;;;;;13.09;82.76;95662.75;5073845;28;1210;-49
2022/06/15 02:07:54;;;;;;;;;;;;;;;13.21;82.91;95667.81;5093994;28;1003;-49
2022/06/15 02:10:20;;;;;;;;;;;;;;;13.09;82.80;95668.13;5093861;28;1914;-49
2022/06/15 02:12:51;;;;;;;;;;;;;;;12.83;82.98;95670.06;5093822;28;1854;-49
2022/06/15 02:15:18;;;;;;;;;;;;;;;12.83;83.40;95675.44;5093787;28;957;-49
2022/06/15 02:17:46;;;;;;;;;;;;;;;12.78;83.20;95670.53;5093707;28;1048;-50
2022/06/15 02:20:17;;;;;;;;;;;;;;;12.77;83.92;95676.91;5093572;28;1061;-49
2022/06/15 02:22:44;;;;;;;;;;;;;;;12.82;83.42;95676.41;5093900;28;945;-49
2022/06/15 02:25:13;;;;;;;;;;;;;;;12.82;83.53;95671.88;5093604;28;1048;-49
2022/06/15 02:27:41;;;;;;;;;;;;;;;12.77;83.81;95673.41;5093769;28;1021;-49
2022/06/15 02:30:09;;;;;;;;;;;;;;;12.82;83.79;95668.38;5093619;28;1910;-49
2022/06/15 02:32:36;;;;;;;;;;;;;;;12.82;83.21;95677.25;5093418;28;1040;-50
2022/06/15 02:35:03;;;;;;;;;;;;;;;12.68;83.52;95672.50;5093331;28;1096;-50
2022/06/15 02:37:29;;;;;;;;;;;;;;;12.56;84.04;95669.28;5093090;28;974;-49
2022/06/15 02:39:55;;;;;;;;;;;;;;;12.63;84.17;95664.09;5093735;28;1009;-49
2022/06/15 02:42:27;;;;;;;;;;;;;;;12.54;84.15;95665.06;5075508;28;902;-49
2022/06/15 02:44:55;;;;;;;;;;;;;;;12.44;83.58;95678.59;5093450;28;1036;-49
2022/06/15 02:47:22;;;;;;;;;;;;;;;12.52;84.37;95677.78;5093248;28;988;-49
2022/06/15 02:49:51;;;;;;;;;;;;;;;12.62;83.77;95678.53;5093322;28;2000;-49
2022/06/15 02:52:20;;;;;;;;;;;;;;;12.62;84.19;95683.88;5093404;28;948;-50
2022/06/15 02:54:48;;;;;;;;;;;;;;;12.57;84.15;95684.34;5093245;28;1000;-49
2022/06/15 02:57:15;;;;;;;;;;;;;;;12.30;84.36;95683.53;5093277;28;1004;-49
2022/06/15 02:59:41;;;;;;;;;;;;;;;12.22;84.87;95680.00;5093181;28;1045;-49
2022/06/15 03:02:07;;;;;;;;;;;;;;;12.35;84.79;95684.91;5093068;28;1056;-49
2022/06/15 03:07:54;;;;;;;;;;;;;;;12.29;84.32;95687.25;5072977;28;636;-49
2022/06/15 03:10:21;;;;;;;;;;;;;;;12.39;83.97;95688.97;5072978;28;1914;-49
2022/06/15 03:12:47;;;;;;;;;;;;;;;12.36;83.78;95689.28;5072762;28;1022;-49
2022/06/15 03:15:14;;;;;;;;;;;;;;;12.27;84.27;95685.69;5072914;28;1049;-49
2022/06/15 03:17:40;;;;;;;;;;;;;;;12.15;84.57;95693.19;5072666;28;1122;-49
2022/06/15 03:20:07;;;;;;;;;;;;;;;12.37;84.81;95685.59;5072893;28;1115;-49
2022/06/15 03:22:34;;;;;;;;;;;;;;;12.30;84.51;95683.53;5072664;28;1010;-49
2022/06/15 03:25:00;;;;;;;;;;;;;;;12.42;85.21;95692.16;5073183;28;962;-49
2022/06/15 03:27:26;;;;;;;;;;;;;;;12.50;84.74;95692.22;5072548;28;1028;-49
2022/06/15 03:29:53;;;;;;;;;;;;;;;12.50;83.68;95686.00;5072975;28;2000;-49
2022/06/15 03:32:19;;;;;;;;;;;;;;;12.44;84.89;95690.16;5072594;28;997;-50
2022/06/15 03:34:45;;;;;;;;;;;;;;;12.52;85.41;95696.56;5072518;28;1096;-51
2022/06/15 03:37:11;;;;;;;;;;;;;;;12.46;85.02;95695.34;5072638;28;995;-49
2022/06/15 03:39:38;;;;;;;;;;;;;;;12.49;84.61;95695.06;5072525;28;1053;-49
2022/06/15 03:42:08;;;;;;;;;;;;;;;12.73;84.62;95696.16;5072436;28;1088;-50
2022/06/15 03:44:34;;;;;;;;;;;;;;;12.96;84.80;95699.13;5072718;28;1056;-50
2022/06/15 03:47:00;;;;;;;;;;;;;;;13.07;84.69;95694.28;5072476;28;1100;-49
2022/06/15 03:49:26;;;;;;;;;;;;;;;13.13;83.47;95698.16;5074140;28;1913;-49
2022/06/15 03:51:52;;;;;;;;;;;;;;;13.20;84.55;95692.97;5076194;28;1034;-50
2022/06/15 03:54:18;;;;;;;;;;;;;;;13.29;84.13;95706.25;5075995;28;1071;-50
2022/06/15 03:56:47;;;;;;;;;;;;;;;13.40;84.58;95701.63;5075934;28;973;-50
2022/06/15 03:59:13;;;;;;;;;;;;;;;13.54;83.18;95708.19;5076167;28;1020;-49
2022/06/15 04:01:39;;;;;;;;;;;;;;;13.68;82.42;95704.84;5076166;28;914;-50
2022/06/15 04:04:05;;;;;;;;;;;;;;;13.93;81.57;95694.09;5076145;28;1056;-50
2022/06/15 04:06:32;;;;;;;;;;;;;;;14.08;82.21;95697.78;5086341;28;1151;-49
2022/06/15 04:08:58;;;;;;;;;;;;;;;14.15;81.29;95703.31;5095998;28;987;-50
2022/06/15 04:14:10;;;;;;;;;;;;;;;14.43;80.75;95704.59;5096230;28;1055;-50
2022/06/15 04:16:36;;;;;;;;;;;;;;;14.66;81.05;95705.78;5095958;28;1032;-49
2022/06/15 04:19:03;;;;;;;;;;;;;;;14.78;80.17;95715.16;5095935;28;1038;-49
2022/06/15 04:21:30;;;;;;;;;;;;;;;14.74;78.60;95711.13;5095866;28;1003;-49
2022/06/15 04:23:56;;;;;;;;;;;;;;;14.89;79.23;95714.78;5095829;28;1045;-50
2022/06/15 04:26:22;;;;;;;;;;;;;;;15.13;79.38;95713.00;5096014;28;1019;-49
2022/06/15 04:28:48;;;;;;;;;;;;;;;15.23;78.23;95716.31;5095859;28;984;-50
2022/06/15 04:31:14;;;;;;;;;;;;;;;15.31;78.26;95712.72;5095681;28;1902;-50
2022/06/15 04:33:40;;;;;;;;;;;;;;;15.51;76.58;95715.81;5095572;28;1038;-50
2022/06/15 04:36:07;;;;;;;;;;;;;;;15.62;76.54;95718.13;5095678;28;1214;-50
2022/06/15 04:38:33;;;;;;;;;;;;;;;15.74;74.99;95724.78;5095629;28;1044;-50
2022/06/15 04:40:59;;;;;;;;;;;;;;;15.87;73.66;95720.66;5095832;28;1048;-50
2022/06/15 04:43:25;;;;;;;;;;;;;;;15.96;75.56;95711.50;5095289;28;1972;-49
2022/06/15 04:45:51;;;;;;;;;;;;;;;15.97;73.66;95721.25;5095650;28;973;-49
2022/06/15 04:48:17;;;;;;;;;;;;;;;16.04;74.31;95724.06;5095361;28;1083;-50
2022/06/15 04:50:43;;;;;;;;;;;;;;;16.20;74.54;95721.22;5095281;28;1906;-50
2022/06/15 04:53:10;;;;;;;;;;;;;;;16.23;74.19;95726.28;5095224;28;1025;-49
2022/06/15 04:55:36;;;;;;;;;;;;;;;16.36;73.62;95714.84;5094940;28;1883;-50
2022/06/15 04:58:02;;;;;;;;;;;;;;;16.57;74.13;95717.66;5095062;28;1040;-49
2022/06/15 05:00:35;;;;;;;;;;;;;;;16.71;72.09;95717.88;5094866;28;1022;-50
2022/06/15 05:03:02;;;;;;;;;;;;;;;16.70;71.86;95718.91;5094990;28;1099;-50
2022/06/15 05:05:28;;;;;;;;;;;;;;;16.83;73.66;95727.22;5093314;28;1219;-50
2022/06/15 05:07:54;;;;;;;;;;;;;;;16.92;71.08;95723.41;5074710;28;1032;-49
2022/06/15 05:10:21;;;;;;;;;;;;;;;16.89;71.89;95715.69;5074837;28;1985;-49
2022/06/15 05:12:48;;;;;;;;;;;;;;;17.02;73.79;95720.44;5074687;28;1017;-49
2022/06/15 05:15:15;;;;;;;;;;;;;;;17.16;72.06;95724.13;5074615;28;1020;-49
2022/06/15 05:17:42;;;;;;;;;;;;;;;17.23;71.46;95727.75;5074501;28;1096;-49
2022/06/15 05:20:11;;;;;;;;;;;;;;;17.48;72.19;95730.16;5074834;28;1029;-49
2022/06/15 05:22:37;;;;;;;;;;;;;;;17.52;70.12;95720.63;5074639;28;996;-49
2022/06/15 05:25:08;;;;;;;;;;;;;;;17.68;71.91;95725.81;5074117;28;1036;-50
2022/06/15 05:27:34;;;;;;;;;;;;;;;17.76;70.67;95724.84;5074481;28;1037;-49
2022/06/15 05:30:01;;;;;;;;;;;;;;;17.84;71.12;95732.84;5074222;28;1906;-50
2022/06/15 05:32:27;;;;;;;;;;;;;;;18.05;71.30;95732.03;5074312;28;988;-50
2022/06/15 05:34:56;;;;;;;;;;;;;;;18.31;70.32;95730.59;5073804;28;1101;-51
2022/06/15 05:37:23;;;;;;;;;;;;;;;18.19;70.04;95729.44;5074408;28;992;-50
2022/06/15 05:39:49;;;;;;;;;;;;;;;18.34;69.39;95730.19;5074143;28;1016;-50
2022/06/15 05:42:16;;;;;;;;;;;;;;;18.24;70.29;95729.72;5074176;28;1084;-50
2022/06/15 05:44:46;;;;;;;;;;;;;;;18.20;71.16;95731.97;5073915;28;1044;-50
2022/06/15 05:47:12;;;;;;;;;;;;;;;18.27;69.04;95730.16;5074048;28;1107;-50
2022/06/15 05:49:38;;;;;;;;;;;;;;;18.29;69.82;95732.69;5073643;28;1902;-50
2022/06/15 05:52:04;;;;;;;;;;;;;;;18.53;69.60;95737.66;5074104;28;976;-50
2022/06/15 05:54:30;;;;;;;;;;;;;;;18.70;67.72;95734.63;5073647;28;1042;-50
2022/06/15 05:56:56;;;;;;;;;;;;;;;18.69;68.57;95735.69;5074047;28;1057;-50
2022/06/15 05:59:22;;;;;;;;;;;;;;;18.65;69.10;95734.41;5073704;28;1263;-49
2022/06/15 06:01:49;;;;;;;;;;;;;;;18.83;71.01;95740.19;5073814;28;1069;-50
2022/06/15 06:04:16;;;;;;;;;;;;;;;18.89;69.63;95736.69;5073522;28;1087;-50
2022/06/15 06:06:42;;;;;;;;;;;;;;;18.94;69.03;95738.81;5085690;28;1162;-50
2022/06/15 06:09:10;;;;;;;;;;;;;;;19.13;68.06;95739.94;5093926;28;1832;-50
2022/06/15 06:11:36;;;;;;;;;;;;;;;19.43;68.02;95740.53;5093195;28;1917;-50
2022/06/15 06:14:02;;;;;;;;;;;;;;;19.57;67.53;95741.41;5093764;28;1080;-50
2022/06/15 06:16:28;;;;;;;;;;;;;;;19.63;66.43;95740.56;5093688;28;1029;-50
2022/06/15 06:18:54;;;;;;;;;;;;;;;19.59;68.89;95747.47;5093761;28;1046;-50
2022/06/15 06:21:20;;;;;;;;;;;;;;;19.81;68.20;95745.47;5075652;28;1032;-49
2022/06/15 06:23:47;;;;;;;;;;;;;;;19.87;65.73;95743.84;5093635;28;1862;-50
2022/06/15 06:26:21;;;;;;;;;;;;;;;19.92;66.83;95745.91;5093564;28;1856;-50
2022/06/15 06:28:47;;;;;;;;;;;;;;;19.96;66.08;95734.47;5093707;28;968;-50
2022/06/15 06:31:13;;;;;;;;;;;;;;;20.02;67.05;95740.94;5093380;28;1941;-50
2022/06/15 06:33:39;;;;;;;;;;;;;;;20.16;67.57;95739.91;5093908;28;1004;-51
2022/06/15 06:39:29;;;;;;;;;;;;;;;20.51;65.03;95725.31;3944489;28;2097;-50
2022/06/15 06:41:57;;;;;;;;;;;;;;;20.52;60.16;95733.25;5093503;28;1020;-50
2022/06/15 06:44:23;;;;;;;;;;;;;;;20.73;62.98;95724.06;5093209;28;1032;-50
2022/06/15 06:46:50;;;;;;;;;;;;;;;20.85;58.32;95719.69;5093612;28;1032;-50
2022/06/15 06:49:17;;;;;;;;;;;;;;;21.12;59.57;95722.34;5093520;28;1038;-50
2022/06/15 06:51:43;;;;;;;;;;;;;;;21.27;58.05;95722.09;5093100;28;1021;-50
2022/06/15 06:54:11;;;;;;;;;;;;;;;21.23;61.79;95718.16;5093140;28;1037;-50
2022/06/15 06:56:37;;;;;;;;;;;;;;;21.20;58.27;95711.22;5093325;28;968;-50
2022/06/15 06:59:04;;;;;;;;;;;;;;;21.30;60.99;95727.09;5093269;28;1092;-50
2022/06/15 07:01:30;;;;;;;;;;;;;;;21.58;61.60;95721.38;5093158;28;1018;-50
2022/06/15 07:03:56;;;;;;;;;;;;;;;21.76;59.54;95720.66;5093300;28;1029;-50
2022/06/15 07:06:22;;;;;;;;;;;;;;;21.88;54.94;95718.09;5083878;28;1210;-49
2022/06/15 07:08:50;;;;;;;;;;;;;;;21.99;56.43;95711.94;5072959;28;1084;-50
2022/06/15 07:11:16;;;;;;;;;;;;;;;22.12;54.31;95721.06;5072759;28;1914;-50
2022/06/15 07:13:43;;;;;;;;;;;;;;;22.16;53.60;95716.88;5073099;28;957;-50
2022/06/15 07:16:10;;;;;;;;;;;;;;;22.11;52.06;95724.88;5072942;28;964;-50
2022/06/15 07:18:36;;;;;;;;;;;;;;;22.13;51.31;95722.75;5072896;28;1931;-50
2022/06/15 07:21:03;;;;;;;;;;;;;;;22.09;50.56;95718.81;5072801;28;1042;-51
2022/06/15 07:23:30;;;;;;;;;;;;;;;22.22;48.15;95718.72;5074413;28;1071;-50
2022/06/15 07:25:56;;;;;;;;;;;;;;;22.21;49.17;95717.88;5058886;28;1064;-49
2022/06/15 07:28:22;;;;;;;;;;;;;;;22.35;51.58;95726.81;5076867;28;1057;-49
2022/06/15 07:30:48;;;;;;;;;;;;;;;22.45;49.61;95725.50;5076542;28;1914;-50
2022/06/15 07:33:15;;;;;;;;;;;;;;;22.58;49.58;95719.94;5076749;28;1027;-49
2022/06/15 07:36:15;;;;;;;;;;;;;;;22.65;52.29;95718.00;5076581;28;1046;-50
2022/06/15 07:38:41;;;;;;;;;;;;;;;22.68;51.26;95725.72;5076491;28;1220;-50
2022/06/15 07:41:07;;;;;;;;;;;;;;;22.83;46.63;95724.53;5076345;28;1033;-50
2022/06/15 07:43:34;;;;;;;;;;;;;;;22.89;48.88;95720.91;5076530;28;1000;-50
2022/06/15 07:46:00;;;;;;;;;;;;;;;22.79;49.11;95722.25;5076349;28;1048;-49
2022/06/15 07:51:22;;;;;;;;;;;;;;;22.88;47.86;95716.50;5076343;28;1909;-50
2022/06/15 07:53:48;;;;;;;;;;;;;;;23.06;49.14;95711.13;5076125;28;1009;-50
2022/06/15 07:56:14;;;;;;;;;;;;;;;22.97;48.87;95716.00;5076094;28;996;-50
2022/06/15 07:58:40;;;;;;;;;;;;;;;23.05;48.43;95714.91;5076010;28;1033;-50
2022/06/15 08:01:06;;;;;;;;;;;;;;;23.14;47.96;95713.53;5075815;28;1045;-49
2022/06/15 08:03:32;;;;;;;;;;;;;;;22.97;47.89;95715.16;5076236;28;1024;-49
2022/06/15 08:05:58;;;;;;;;;;;;;;;22.95;48.62;95709.09;5081807;28;1166;-50
2022/06/15 08:08:24;;;;;;;;;;;;;;;23.12;48.67;95718.38;5096164;28;1084;-50
2022/06/15 08:10:51;;;;;;;;;;;;;;;23.09;45.22;95710.69;5096198;28;1913;-49
2022/06/15 08:13:17;;;;;;;;;;;;;;;23.12;48.84;95712.94;5078173;28;980;-49
2022/06/15 08:15:45;;;;;;;;;;;;;;;23.10;44.25;95711.50;5095978;28;1118;-49
2022/06/15 08:18:16;;;;;;;;;;;;;;;23.20;46.47;95711.78;5096168;28;1037;-49
2022/06/15 08:20:47;;;;;;;;;;;;;;;23.46;47.87;95718.84;5095941;28;1111;-49
2022/06/15 08:23:15;;;;;;;;;;;;;;;23.64;50.09;95719.88;5095805;28;1865;-49
2022/06/15 08:25:43;;;;;;;;;;;;;;;23.75;47.98;95716.38;5095704;28;957;-49
2022/06/15 08:28:09;;;;;;;;;;;;;;;23.73;47.55;95713.91;5095610;28;1949;-49
2022/06/15 08:30:36;;;;;;;;;;;;;;;23.77;48.69;95704.19;5095626;28;1992;-50
2022/06/15 08:33:06;;;;;;;;;;;;;;;23.83;46.80;95704.34;5095597;28;1044;-50
2022/06/15 08:35:36;;;;;;;;;;;;;;;23.59;43.95;95710.50;5095091;28;1164;-49
2022/06/15 08:38:06;;;;;;;;;;;;;;;23.68;45.60;95705.56;5095683;28;992;-49
2022/06/15 08:40:36;;;;;;;;;;;;;;;23.80;49.83;95708.38;5095455;28;1200;-49
2022/06/15 08:43:10;;;;;;;;;;;;;;;23.70;44.77;95706.16;5095419;28;1244;-49
2022/06/15 08:45:36;;;;;;;;;;;;;;;23.46;43.98;95710.66;5095749;28;1167;-49
2022/06/15 08:48:02;;;;;;;;;;;;;;;23.63;47.02;95701.88;5095331;28;1033;-49
2022/06/15 08:50:42;;;;;;;;;;;;;;;23.88;49.07;95702.59;5095265;28;1906;-49
2022/06/15 08:53:22;;;;;;;;;;;;;;;23.87;45.65;95700.13;5095231;28;1944;-49
2022/06/15 08:56:07;;;;;;;;;;;;;;;24.02;48.47;95697.78;5095602;28;969;-49
2022/06/15 08:58:52;;;;;;;;;;;;;;;24.14;50.44;95706.00;5095198;28;1017;-49
2022/06/15 09:01:28;;;;;;;;;;;;;;;24.02;46.93;95702.41;5095330;28;965;-49
2022/06/15 09:04:19;;;;;;;;;;;;;;;23.80;45.04;95697.47;5094876;28;954;-49
2022/06/15 09:06:48;;;;;;;;;;;;;;;23.78;44.26;95703.16;5082533;28;1304;-49
2022/06/15 09:09:27;;;;;;;;;;;;;;;23.87;47.86;95694.66;5074918;28;954;-50
2022/06/15 09:15:13;;;;;;;;;;;;;;;24.26;49.29;95689.66;5074915;28;1153;-49
2022/06/15 09:17:39;;;;;;;;;;;;;;;24.26;46.58;95695.94;5074406;28;1077;-50
2022/06/15 09:20:11;;;;;;;;;;;;;;;24.15;46.96;95691.31;5074664;28;1206;-49
2022/06/15 09:22:39;;;;;;;;;;;;;;;24.10;46.37;95685.69;5074261;28;1005;-49
2022/06/15 09:25:08;;;;;;;;;;;;;;;24.28;47.04;95687.50;5074265;28;1162;-49
2022/06/15 09:27:44;;;;;;;;;;;;;;;24.25;44.58;95685.28;5074373;28;978;-49
2022/06/15 09:30:13;;;;;;;;;;;;;;;24.22;47.95;95686.53;5074476;28;1984;-49
2022/06/15 09:32:46;;;;;;;;;;;;;;;24.27;44.69;95680.41;5074057;28;1021;-49
2022/06/15 09:35:16;;;;;;;;;;;;;;;24.36;44.22;95668.88;5074273;28;954;-49
2022/06/15 09:37:44;;;;;;;;;;;;;;;24.22;42.88;95678.34;5074454;28;1171;-49
2022/06/15 09:40:10;;;;;;;;;;;;;;;24.21;46.76;95673.97;5076060;28;1252;-49
2022/06/15 09:42:39;;;;;;;;;;;;;;;24.26;47.39;95674.09;5074050;28;1044;-49
2022/06/15 09:45:08;;;;;;;;;;;;;;;24.41;45.87;95672.81;5074241;28;962;-49
2022/06/15 09:47:52;;;;;;;;;;;;;;;24.52;46.35;95670.13;5072870;28;1066;-50
2022/06/15 09:50:18;;;;;;;;;;;;;;;24.54;46.23;95667.97;5074198;28;1898;-50
2022/06/15 09:52:54;;;;;;;;;;;;;;;24.12;43.73;95675.38;5073939;28;980;-50
2022/06/15 09:55:24;;;;;;;;;;;;;;;24.02;43.27;95665.03;5073738;28;1092;-49
2022/06/15 09:57:52;;;;;;;;;;;;;;;24.27;46.31;95662.09;5073825;28;972;-49
2022/06/15 10:00:18;;;;;;;;;;;;;;;24.33;45.39;95666.63;5073755;28;1041;-49
2022/06/15 10:02:47;;;;;;;;;;;;;;;24.33;45.13;95661.16;5073451;28;1464;-50
2022/06/15 10:05:21;;;;;;;;;;;;;;;24.42;45.91;95664.38;5073980;28;1025;-49
2022/06/15 10:07:48;;;;;;;;;;;;;;;24.36;44.39;95657.97;5073612;28;1037;-49
2022/06/15 10:10:21;;;;;;;;;;;;;;;24.34;44.50;95662.00;5073609;28;1985;-49
2022/06/15 10:15:44;;;;;;;;;;;;;;;24.26;46.64;95663.16;5073811;28;1022;-49
2022/06/15 10:18:14;;;;;;;;;;;;;;;24.44;48.76;95656.78;5062781;28;1174;-49
2022/06/15 10:20:41;;;;;;;;;;;;;;;24.57;45.70;95661.22;5073590;28;1007;-49
2022/06/15 10:23:18;;;;;;;;;;;;;;;24.55;46.32;95657.91;5073351;28;1113;-50
2022/06/15 10:25:48;;;;;;;;;;;;;;;24.42;44.30;95663.56;5073447;28;1057;-49
2022/06/15 10:28:16;;;;;;;;;;;;;;;24.38;44.09;95656.88;5073317;28;909;-48
2022/06/15 10:30:53;;;;;;;;;;;;;;;24.44;44.88;95651.31;5073432;28;1906;-49
2022/06/15 10:33:20;;;;;;;;;;;;;;;24.49;48.17;95653.31;5073244;28;1017;-49
2022/06/15 10:35:53;;;;;;;;;;;;;;;24.39;44.74;95647.63;5073721;28;1053;-50
2022/06/15 10:38:18;;;;;;;;;;;;;;;24.45;44.87;95652.13;5073377;28;1025;-49
2022/06/15 10:40:56;;;;;;;;;;;;;;;24.48;44.39;95640.75;5073201;28;1215;-50
2022/06/15 10:43:28;;;;;;;;;;;;;;;24.64;48.16;95645.50;5073084;28;1076;-50
2022/06/15 10:45:54;;;;;;;;;;;;;;;24.70;43.81;95649.19;5073390;28;988;-49
2022/06/15 10:48:30;;;;;;;;;;;;;;;24.69;43.62;95634.72;5073012;28;973;-49
2022/06/15 10:51:04;;;;;;;;;;;;;;;24.65;43.87;95641.72;5073218;28;1902;-50
2022/06/15 10:53:33;;;;;;;;;;;;;;;24.77;44.23;95635.41;5072781;28;1981;-50
2022/06/15 11:04:28;;;;;;;;;;;;;;;24.60;44.34;95624.38;5077115;28;982;-49
2022/06/15 11:07:05;;;;;;;;;;;;;;;24.72;47.09;95623.31;5090731;28;1151;-50
2022/06/15 11:10:02;;;;;;;;;;;;;;;24.82;44.78;95621.88;5097298;28;1989;-50
2022/06/15 11:12:43;;;;;;;;;;;;;;;24.85;44.79;95618.66;5097406;28;1017;-49
2022/06/15 11:15:12;;;;;;;;;;;;;;;24.77;43.42;95622.56;5097195;28;1027;-49
2022/06/15 11:20:27;;;;;;;;;;;;;;;25.20;44.85;95620.50;5097196;28;1019;-50
2022/06/15 11:22:55;;;;;;;;;;;;;;;25.26;44.93;95619.56;5097168;28;1024;-49
2022/06/15 11:25:37;;;;;;;;;;;;;;;24.96;42.95;95611.50;5096870;28;1005;-50
2022/06/15 11:28:06;;;;;;;;;;;;;;;24.93;44.99;95615.56;5097150;28;991;-49
2022/06/15 11:30:35;;;;;;;;;;;;;;;24.83;41.87;95613.41;5096970;28;1906;-49
2022/06/15 11:33:01;;;;;;;;;;;;;;;24.87;42.57;95602.81;5096945;28;1012;-49
2022/06/15 11:35:33;;;;;;;;;;;;;;;24.89;42.50;95611.63;5096681;28;1146;-49
2022/06/15 11:38:32;;;;;;;;;;;;;;;25.00;42.91;95604.47;5096887;28;1183;-50
2022/06/15 11:41:13;;;;;;;;;;;;;;;25.03;41.25;95599.34;5060432;28;1834;-50
2022/06/15 11:43:42;;;;;;;;;;;;;;;25.08;43.73;95604.09;5096910;28;945;-50
2022/06/15 11:46:08;;;;;;;;;;;;;;;25.17;44.80;95605.38;5096690;28;962;-51
2022/06/15 11:48:53;;;;;;;;;;;;;;;25.27;43.59;95610.25;5096551;28;922;-50
2022/06/15 11:51:26;;;;;;;;;;;;;;;25.41;44.57;95592.50;5096369;28;1910;-51
2022/06/15 11:53:55;;;;;;;;;;;;;;;25.38;43.83;95595.72;5096617;28;960;-51
2022/06/15 11:56:23;;;;;;;;;;;;;;;25.48;45.57;95597.84;5096487;28;1044;-50
2022/06/15 11:59:07;;;;;;;;;;;;;;;25.55;44.96;95592.19;5096450;28;1068;-50
2022/06/15 12:01:41;;;;;;;;;;;;;;;25.66;44.34;95588.56;5096108;28;1024;-50
2022/06/15 12:04:15;;;;;;;;;;;;;;;25.76;43.79;95585.19;5096649;28;1126;-51
2022/06/15 12:07:07;;;;;;;;;;;;;;;25.76;43.95;95583.28;5084347;28;1853;-51
2022/06/15 12:09:56;;;;;;;;;;;;;;;25.64;43.48;95580.59;5071841;28;1914;-51
2022/06/15 12:12:39;;;;;;;;;;;;;;;25.63;45.84;95578.09;5076174;28;969;-51
2022/06/15 12:15:12;;;;;;;;;;;;;;;25.55;42.86;95589.47;5075942;28;992;-50
2022/06/15 12:17:47;;;;;;;;;;;;;;;25.47;44.19;95577.00;5075894;28;1059;-50
2022/06/15 12:20:32;;;;;;;;;;;;;;;25.42;43.17;95575.00;5075650;28;946;-50
2022/06/15 12:22:58;;;;;;;;;;;;;;;25.43;43.33;95576.66;5075759;28;1069;-50
2022/06/15 12:25:35;;;;;;;;;;;;;;;25.37;43.35;95582.28;5075418;28;1032;-51
2022/06/15 12:28:06;;;;;;;;;;;;;;;25.43;42.08;95571.19;5075753;28;997;-51
2022/06/15 12:30:48;;;;;;;;;;;;;;;25.60;45.58;95573.16;5075385;28;1914;-51
2022/06/15 12:33:16;;;;;;;;;;;;;;;25.76;46.41;95560.53;5075816;28;1039;-51
2022/06/15 12:35:45;;;;;;;;;;;;;;;25.67;46.43;95563.69;5075445;28;957;-51
2022/06/15 12:38:20;;;;;;;;;;;;;;;25.45;42.29;95565.47;5075600;28;982;-50
2022/06/15 12:40:46;;;;;;;;;;;;;;;25.50;44.16;95566.41;5075089;28;1085;-50
2022/06/15 12:43:42;;;;;;;;;;;;;;;25.55;43.32;95560.16;5075357;28;1033;-50
2022/06/15 12:46:14;;;;;;;;;;;;;;;25.64;45.86;95552.41;5054161;28;1319;-51
2022/06/15 12:48:49;;;;;;;;;;;;;;;25.59;43.71;95557.78;5075321;28;1034;-50
2022/06/15 12:51:22;;;;;;;;;;;;;;;25.50;41.75;95546.41;5075077;28;1997;-50
2022/06/15 12:53:48;;;;;;;;;;;;;;;25.35;41.38;95551.59;5074931;28;961;-51
2022/06/15 12:56:20;;;;;;;;;;;;;;;25.29;39.99;95543.28;5075160;28;1053;-51
2022/06/15 12:58:46;;;;;;;;;;;;;;;25.30;39.88;95539.47;5075195;28;1059;-51
2022/06/15 13:01:34;;;;;;;;;;;;;;;25.37;42.52;95538.50;5075039;28;1030;-50
2022/06/15 13:04:07;;;;;;;;;;;;;;;25.48;43.76;95538.44;5075053;28;1064;-50
2022/06/15 13:06:34;;;;;;;;;;;;;;;25.61;41.43;95526.34;5085402;28;1217;-50
2022/06/15 13:09:16;;;;;;;;;;;;;;;25.52;41.35;95522.34;5095094;28;1036;-50
2022/06/15 13:11:46;;;;;;;;;;;;;;;25.50;42.71;95524.50;5094994;28;1910;-50
2022/06/15 13:14:14;;;;;;;;;;;;;;;25.42;43.83;95528.47;5095036;28;1022;-50
2022/06/15 13:16:42;;;;;;;;;;;;;;;25.39;44.18;95528.97;5095169;28;1053;-50
2022/06/15 13:19:25;;;;;;;;;;;;;;;25.43;44.43;95524.66;5094941;28;1953;-50
2022/06/15 13:21:53;;;;;;;;;;;;;;;25.46;43.93;95526.91;5094653;28;970;-50
2022/06/15 13:24:20;;;;;;;;;;;;;;;25.39;42.25;95520.75;5094769;28;1007;-51
2022/06/15 13:26:48;;;;;;;;;;;;;;;25.38;43.17;95529.19;5094601;28;1031;-50
2022/06/15 13:29:17;;;;;;;;;;;;;;;25.39;43.10;95528.97;5094744;28;1004;-50
2022/06/15 13:31:53;;;;;;;;;;;;;;;25.33;40.62;95525.28;5094605;28;1910;-50
2022/06/15 13:34:39;;;;;;;;;;;;;;;25.43;40.17;95516.44;5094799;28;950;-50
2022/06/15 13:37:11;;;;;;;;;;;;;;;25.54;41.02;95516.66;5080429;28;1772;-51
2022/06/15 13:39:44;;;;;;;;;;;;;;;25.58;42.78;95517.81;5094264;28;1103;-50
2022/06/15 13:42:28;;;;;;;;;;;;;;;25.63;42.99;95520.59;5094404;28;1971;-50
2022/06/15 13:45:00;;;;;;;;;;;;;;;25.67;42.08;95510.84;5094437;28;1162;-51